Time;durP1;ratioP1;P1;durP2;ratioP2;P2;SDS_P1;SDS_P2;PMS_P1;PMS_P2;Temp;Humidity;BMP_temperature;BMP_pressure;BME280_temperature;BME280_humidity;BME280_pressure;Samples;Min_cycle;Max_cycle;Signal;HPM_P1;HPM_P2
2022/11/29 00:01:06;;;;;;;20.30;9.53;;;;;;;-141.97;96.24;47703.59;4994862;28;20418;-86
2022/11/29 00:03:32;;;;;;;16.90;8.67;;;;;;;-141.97;96.02;47753.56;4992178;28;20438;-86
2022/11/29 00:06:06;;;;;;;16.87;8.67;;;;;;;-141.97;96.30;47667.06;4993728;28;20494;-86
2022/11/29 00:08:32;;;;;;;15.47;8.83;;;;;;;-141.97;96.14;47784.34;4993991;28;20417;-86
2022/11/29 00:11:06;;;;;;;15.60;8.47;;;;;;;-141.97;95.70;47778.56;4994213;28;20494;-86
2022/11/29 00:13:31;;;;;;;14.93;8.03;;;;;;;-141.97;95.75;47828.53;4976583;28;20222;-86
2022/11/29 00:16:04;;;;;;;17.63;9.03;;;;;;;-141.97;95.94;47642.09;4994589;28;20486;-86
2022/11/29 00:18:30;;;;;;;15.77;8.67;;;;;;;-141.97;95.79;47795.88;4994400;28;20183;-87
2022/11/29 00:20:55;;;;;;;14.67;8.33;;;;;;;-141.97;95.48;47692.06;4993863;28;20398;-87
2022/11/29 00:23:21;;;;;;;16.60;8.00;;;;;;;-141.97;95.03;47853.53;4976251;28;20171;-88
2022/11/29 00:25:46;;;;;;;16.70;9.03;;;;;;;-141.97;95.03;47636.31;4974153;28;20692;-88
2022/11/29 00:28:11;;;;;;;16.27;9.10;;;;;;;-141.97;95.16;47661.31;4991659;28;20178;-87
2022/11/29 00:30:37;;;;;;;17.87;9.20;;;;;;;-141.97;94.87;47809.31;4994820;28;20280;-87
2022/11/29 00:33:03;;;;;;;18.53;9.43;;;;;;;-141.97;95.17;47863.13;5007224;28;20229;-86
2022/11/29 00:35:29;;;;;;;19.90;10.83;;;;;;;-141.97;95.14;47797.78;5008746;28;20238;-88
2022/11/29 00:37:54;;;;;;;20.03;10.77;;;;;;;-141.97;95.32;47853.53;4984868;28;20470;-87
2022/11/29 00:40:19;;;;;;;23.23;11.33;;;;;;;-141.97;95.82;47824.69;4978136;28;20164;-87
2022/11/29 00:42:45;;;;;;;21.60;11.93;;;;;;;-141.97;96.03;47803.56;4977365;28;20168;-88
2022/11/29 00:45:11;;;;;;;25.57;13.00;;;;;;;-141.97;97.01;47838.16;4976961;28;20171;-88
2022/11/29 00:47:36;;;;;;;24.90;12.67;;;;;;;-141.97;97.61;47818.94;4976784;28;20652;-88
2022/11/29 00:50:02;;;;;;;25.23;13.43;;;;;;;-141.97;97.97;47670.91;4976387;28;20171;-88
2022/11/29 00:52:28;;;;;;;21.83;11.80;;;;;;;-141.97;98.36;47782.41;4992083;28;20206;-88
2022/11/29 00:54:53;;;;;;;20.97;11.43;;;;;;;-141.97;98.00;47768.94;4993371;28;20247;-87
2022/11/29 00:57:19;;;;;;;23.03;11.50;;;;;;;-141.97;97.66;47638.25;4993393;28;20525;-88
2022/11/29 00:59:44;;;;;;;20.60;11.23;;;;;;;-141.97;97.60;47678.63;4992299;28;20583;-88
2022/11/29 01:02:09;;;;;;;21.03;11.20;;;;;;;-141.97;97.80;47640.16;4993481;28;20254;-87
2022/11/29 01:04:35;;;;;;;21.97;11.07;;;;;;;-141.97;97.62;47607.50;4991962;28;20532;-87
2022/11/29 01:07:01;;;;;;;21.60;11.20;;;;;;;-141.97;98.31;47705.53;4975553;28;20171;-88
2022/11/29 01:09:26;;;;;;;23.27;11.33;;;;;;;-141.97;97.88;47799.72;4992599;28;20174;-87
2022/11/29 01:11:52;;;;;;;21.60;11.63;;;;;;;-141.97;97.84;47642.09;4992956;28;20628;-88
2022/11/29 01:14:17;;;;;;;24.57;12.87;;;;;;;-141.97;98.20;47790.09;4991622;28;20172;-87
2022/11/29 01:16:43;;;;;;;22.90;12.57;;;;;;;-141.97;98.28;47857.38;4975412;28;20229;-87
2022/11/29 01:19:08;;;;;;;24.63;12.47;;;;;;;-141.97;99.12;47803.56;4975321;28;20271;-88
2022/11/29 01:21:34;;;;;;;23.43;12.37;;;;;;;-141.97;98.51;47830.47;4993037;28;20250;-87
2022/11/29 01:24:00;;;;;;;28.77;13.73;;;;;;;-141.97;98.89;47732.44;4991846;28;20183;-87
2022/11/29 01:26:28;;;;;;;25.70;12.80;;;;;;;-141.97;99.88;47815.09;4974947;28;20190;-87
2022/11/29 01:28:55;;;;;;;25.40;12.80;;;;;;;-141.97;99.78;47792.03;4992595;28;20411;-88
2022/11/29 01:31:24;;;;;;;25.67;13.03;;;;;;;-141.97;100.00;47832.38;4974793;28;20811;-89
2022/11/29 01:33:56;;;;;;;23.27;11.83;;;;;;;-141.97;100.00;47782.41;4992582;28;20512;-88
2022/11/29 01:36:22;;;;;;;22.50;12.20;;;;;;;-141.97;100.00;47807.41;4992127;28;20450;-87
2022/11/29 01:38:48;;;;;;;27.47;12.80;;;;;;;-141.97;100.00;47692.06;4991335;28;20415;-88
2022/11/29 01:41:22;;;;;;;26.83;13.80;;;;;;;-141.97;100.00;47651.69;4974930;28;20427;-87
2022/11/29 01:43:59;;;;;;;30.73;13.90;;;;;;;-141.97;100.00;47836.22;4974745;28;20179;-87
2022/11/29 01:46:26;;;;;;;30.93;16.10;;;;;;;-141.97;100.00;47799.72;4980798;28;20422;-87
2022/11/29 01:48:57;;;;;;;29.17;15.60;;;;;;;-141.97;100.00;47605.56;4997710;28;20422;-88
2022/11/29 01:51:24;;;;;;;30.57;14.57;;;;;;;-141.97;100.00;47861.22;4990635;28;20954;-87
2022/11/29 01:53:50;;;;;;;26.97;14.50;;;;;;;-141.97;100.00;47707.44;4992092;28;20893;-88
2022/11/29 01:56:15;;;;;;;27.90;14.30;;;;;;;-141.97;100.00;47628.63;4992331;28;20418;-88
2022/11/29 01:58:43;;;;;;;29.07;15.23;;;;;;;-141.97;100.00;47761.25;4974630;28;20302;-88
2022/11/29 02:01:09;;;;;;;31.37;15.80;;;;;;;-141.97;100.00;47711.28;4992162;28;20241;-87
2022/11/29 02:03:34;;;;;;;29.00;15.37;;;;;;;-141.97;100.00;47824.69;4981841;28;20934;-87
2022/11/29 02:06:01;;;;;;;31.27;14.43;;;;;;;-141.97;100.00;47692.06;4974273;28;20589;-87
2022/11/29 02:08:40;;;;;;;31.13;14.37;;;;;;;-141.97;100.00;47626.72;4974899;28;20640;-88
2022/11/29 02:11:38;;;;;;;31.03;14.13;;;;;;;-141.97;100.00;47653.63;4974267;28;20939;-87
2022/11/29 02:14:18;;;;;;;28.20;14.97;;;;;;;-141.97;100.00;47757.41;4991828;28;20459;-87
2022/11/29 02:17:00;;;;;;;29.63;14.50;;;;;;;-141.97;100.00;47818.94;4973928;28;20482;-87
2022/11/29 02:19:31;;;;;;;28.17;13.87;;;;;;;-141.97;100.00;47822.78;4973938;28;20411;-87
2022/11/29 02:22:06;;;;;;;29.10;14.30;;;;;;;-141.97;100.00;47759.34;4974184;28;20441;-86
2022/11/29 02:24:50;;;;;;;33.20;15.17;;;;;;;-141.97;100.00;47801.63;4990347;28;20519;-87
2022/11/29 02:27:38;;;;;;;30.67;15.50;;;;;;;-141.97;100.00;47780.47;4992264;28;20541;-87
2022/11/29 02:30:15;;;;;;;34.70;17.30;;;;;;;-141.97;100.00;47655.53;5004044;28;20414;-88
2022/11/29 02:32:50;;;;;;;35.10;17.57;;;;;;;-141.97;100.00;47767.03;4999038;28;20492;-88
2022/11/29 02:35:42;;;;;;;36.13;18.83;;;;;;;-141.97;100.00;47742.03;4991728;28;20448;-87
2022/11/29 02:38:20;;;;;;;33.00;17.13;;;;;;;-141.97;100.00;47849.69;4977453;28;20505;-87
2022/11/29 02:41:31;;;;;;;34.37;17.67;;;;;;;-141.97;100.00;47803.56;4991939;28;20446;-87
2022/11/29 02:44:25;;;;;;;32.80;15.50;;;;;;;-141.97;100.00;47857.38;4893859;29;21006;-87
2022/11/29 02:46:57;;;;;;;34.67;16.47;;;;;;;-141.97;100.00;47863.13;4878210;29;20497;-87
2022/11/29 02:49:48;;;;;;;35.63;17.63;;;;;;;-141.97;100.00;47803.56;4878299;29;20509;-88
2022/11/29 02:52:24;;;;;;;36.57;16.63;;;;;;;-141.97;100.00;47822.78;4804536;29;20520;-87
2022/11/29 02:54:57;;;;;;;37.20;18.30;;;;;;;-141.97;100.00;47765.09;4805316;29;20477;-87
2022/11/29 02:57:40;;;;;;;40.13;18.57;;;;;;;-141.97;100.00;47817.00;4819905;29;20536;-88
2022/11/29 03:00:13;;;;;;;39.13;18.47;;;;;;;-141.97;100.00;47822.78;4820042;29;20457;-87
2022/11/29 03:02:51;;;;;;;39.13;18.90;;;;;;;-141.97;100.00;47768.94;4819776;29;20473;-86
2022/11/29 03:05:31;;;;;;;41.77;18.27;;;;;;;-141.97;100.00;47818.94;4819831;29;20505;-87
2022/11/29 03:08:33;;;;;;;41.97;19.10;;;;;;;-141.97;100.00;47788.19;4819601;29;20517;-87
2022/11/29 03:11:03;;;;;;;45.23;20.47;;;;;;;-141.97;100.00;47724.75;4750927;30;20507;-88
2022/11/29 03:13:55;;;;;;;47.83;20.67;;;;;;;-141.97;100.00;47795.88;4765933;29;21037;-85
2022/11/29 03:16:37;;;;;;;51.30;24.43;;;;;;;-141.97;100.00;47784.34;4696435;30;20492;-84
2022/11/29 03:19:39;;;;;;;59.47;27.23;;;;;;;-141.97;100.00;47692.06;4695924;30;20465;-84
2022/11/29 03:22:26;;;;;;;56.33;26.40;;;;;;;-141.97;100.00;47792.03;4765714;30;20466;-86
2022/11/29 03:25:07;;;;;;;56.10;24.03;;;;;;;-141.97;100.00;47751.66;4765796;30;21058;-86
2022/11/29 03:27:54;;;;;;;54.93;25.47;;;;;;;-141.97;100.00;47809.31;4765768;30;20541;-86
2022/11/29 03:30:20;;;;;;;57.90;27.20;;;;;;;-141.97;100.00;47740.13;4822591;29;20437;-86
2022/11/29 03:33:23;;;;;;;56.97;27.13;;;;;;;-141.97;100.00;47768.94;4840463;29;20511;-86
2022/11/29 03:36:10;;;;;;;53.37;23.50;;;;;;;-141.97;100.00;47765.09;4841076;29;20426;-87
2022/11/29 03:38:42;;;;;;;57.60;24.67;;;;;;;-141.97;100.00;47799.72;4825595;29;20437;-84
2022/11/29 03:41:24;;;;;;;56.07;25.43;;;;;;;-141.97;100.00;47772.78;4840853;29;20461;-84
2022/11/29 03:44:15;;;;;;;53.80;25.43;;;;;;;-141.97;100.00;47745.88;4841046;29;20422;-85
2022/11/29 03:46:51;;;;;;;55.23;25.30;;;;;;;-141.97;100.00;47792.03;4813059;29;20540;-86
2022/11/29 03:49:37;;;;;;;53.90;23.93;;;;;;;-141.97;100.00;47743.97;4825640;29;20855;-86
2022/11/29 03:52:11;;;;;;;52.80;24.13;;;;;;;-141.97;100.00;47753.56;4844422;29;20430;-87
2022/11/29 03:54:42;;;;;;;59.33;25.60;;;;;;;-141.97;100.00;47795.88;4934367;29;20440;-86
2022/11/29 03:57:08;;;;;;;54.70;24.50;;;;;;;-141.97;100.00;47872.75;4918872;29;20535;-86
2022/11/29 03:59:45;;;;;;;58.07;25.23;;;;;;;-141.97;100.00;47792.03;4934283;29;20536;-86
2022/11/29 04:02:33;;;;;;;57.57;24.93;;;;;;;-141.97;100.00;47795.88;4933830;29;20191;-86
2022/11/29 04:05:17;;;;;;;62.43;27.87;;;;;;;-141.97;100.00;47799.72;4918738;29;20429;-89
2022/11/29 04:08:25;;;;;;;61.77;27.70;;;;;;;-141.97;100.00;47784.34;4917924;29;20437;-87
2022/11/29 04:11:18;;;;;;;70.37;29.33;;;;;;;-141.97;100.00;47793.94;4933802;29;20417;-86
2022/11/29 04:14:13;;;;;;;68.77;27.60;;;;;;;-141.97;100.00;47797.78;4934365;29;20475;-86
2022/11/29 04:16:44;;;;;;;71.07;28.67;;;;;;;-141.97;100.00;47822.78;4878531;29;21070;-85
2022/11/29 04:19:28;;;;;;;68.87;28.53;;;;;;;-141.97;100.00;47797.78;4878229;29;20574;-88
2022/11/29 04:22:26;;;;;;;67.27;27.03;;;;;;;-141.97;100.00;47807.41;4877143;29;20996;-86
2022/11/29 04:25:00;;;;;;;73.73;29.77;;;;;;;-141.97;100.00;47809.31;4933985;29;20413;-87
2022/11/29 04:27:35;;;;;;;73.37;30.67;;;;;;;-141.97;100.00;47811.25;4933988;29;20501;-87
2022/11/29 04:30:09;;;;;;;74.73;30.27;;;;;;;-141.97;100.00;47786.25;4918218;29;20861;-89
2022/11/29 04:32:59;;;;;;;77.67;32.13;;;;;;;-141.97;100.00;47767.03;4933366;29;20476;-90
2022/11/29 04:35:57;;;;;;;71.80;29.57;;;;;;;-141.97;100.00;47790.09;4933637;29;20432;-87
2022/11/29 04:38:38;;;;;;;70.47;28.97;;;;;;;-141.97;100.00;47745.88;4867277;29;20459;-86
2022/11/29 04:41:20;;;;;;;72.80;30.10;;;;;;;-141.97;100.00;47788.19;4842880;29;20585;-88
2022/11/29 04:44:11;;;;;;;68.03;27.97;;;;;;;-141.97;100.00;47688.22;4858004;29;20645;-89
2022/11/29 04:46:51;;;;;;;75.03;31.00;;;;;;;-141.97;100.00;47826.63;4858449;29;20429;-88
2022/11/29 04:49:48;;;;;;;80.17;32.27;;;;;;;-141.97;100.00;47822.78;4858219;29;20429;-87
2022/11/29 04:52:51;;;;;;;82.07;33.27;;;;;;;-141.97;100.00;47763.19;4857887;29;20468;-87
2022/11/29 04:55:39;;;;;;;81.40;32.23;;;;;;;-141.97;100.00;47801.63;4895225;29;20430;-86
2022/11/29 04:58:40;;;;;;;75.60;30.80;;;;;;;-141.97;100.00;47807.41;4897332;29;20745;-85
2022/11/29 05:01:26;;;;;;;93.47;36.77;;;;;;;-141.97;100.00;47830.47;4895450;29;20433;-87
2022/11/29 05:04:14;;;;;;;134.83;47.70;;;;;;;-141.97;100.00;47776.63;4895203;29;20422;-87
2022/11/29 05:06:53;;;;;;;106.40;36.60;;;;;;;-141.97;100.00;47809.31;4876243;29;20428;-86
2022/11/29 05:09:34;;;;;;;112.20;43.40;;;;;;;-141.97;100.00;47765.09;4876982;29;20515;-87
2022/11/29 05:12:09;;;;;;;104.70;41.97;;;;;;;-141.97;100.00;47807.41;4874524;29;20460;-86
2022/11/29 05:14:53;;;;;;;97.53;38.30;;;;;;;-141.97;100.00;47793.94;4905446;29;20464;-87
2022/11/29 05:17:43;;;;;;;102.37;41.63;;;;;;;-141.97;100.00;47799.72;4896077;29;20446;-87
2022/11/29 05:20:13;;;;;;;90.10;36.03;;;;;;;-141.97;100.00;47753.56;4895284;29;20427;-87
2022/11/29 05:23:03;;;;;;;89.57;35.37;;;;;;;-141.97;100.00;47797.78;4894879;29;20453;-87
2022/11/29 05:25:53;;;;;;;94.63;36.77;;;;;;;-141.97;100.00;47763.19;4894805;29;20443;-86
2022/11/29 05:28:39;;;;;;;96.33;35.40;;;;;;;-141.97;100.00;47799.72;4894593;29;20422;-87
2022/11/29 05:31:25;;;;;;;107.43;39.60;;;;;;;-141.97;100.00;47824.69;4894860;29;20962;-87
2022/11/29 05:34:11;;;;;;;93.33;36.80;;;;;;;-141.97;100.00;47757.41;4894621;29;20470;-86
2022/11/29 05:36:39;;;;;;;92.67;34.40;;;;;;;-141.97;100.00;47780.47;4895102;29;20531;-86
2022/11/29 05:39:42;;;;;;;88.00;32.50;;;;;;;-141.97;100.00;47788.19;4894884;29;20426;-85
2022/11/29 05:42:23;;;;;;;93.07;33.83;;;;;;;-141.97;100.00;47772.78;4894323;29;20514;-87
2022/11/29 05:45:13;;;;;;;94.00;33.43;;;;;;;-141.97;100.00;47757.41;4955099;28;20492;-87
2022/11/29 05:47:51;;;;;;;92.77;35.00;;;;;;;-141.97;100.00;47799.72;4992542;28;20979;-89
2022/11/29 05:50:24;;;;;;;82.10;30.70;;;;;;;-141.97;100.00;47730.50;4974632;28;20449;-88
2022/11/29 05:52:58;;;;;;;102.97;37.33;;;;;;;-141.97;100.00;47830.47;4993320;28;20462;-86
2022/11/29 05:55:28;;;;;;;93.27;34.33;;;;;;;-141.97;100.00;47836.22;4974204;28;20480;-87
2022/11/29 05:58:02;;;;;;;96.07;37.07;;;;;;;-141.97;100.00;47792.03;4974918;28;20438;-87
2022/11/29 06:00:44;;;;;;;103.23;37.73;;;;;;;-141.97;100.00;47799.72;4991950;28;20407;-87
2022/11/29 06:03:23;;;;;;;115.00;41.37;;;;;;;-141.97;100.00;47801.63;5000553;28;20425;-88
2022/11/29 06:06:14;;;;;;;115.80;43.10;;;;;;;-141.97;100.00;47872.75;4988909;28;20429;-88
2022/11/29 06:08:54;;;;;;;149.13;54.00;;;;;;;-141.97;100.00;47799.72;5003696;28;20411;-88
2022/11/29 06:11:38;;;;;;;124.23;47.17;;;;;;;-141.97;100.00;47807.41;4994222;28;20415;-86
2022/11/29 06:14:12;;;;;;;127.50;48.00;;;;;;;-141.97;100.00;47757.41;4975048;28;20466;-86
2022/11/29 06:16:55;;;;;;;100.67;38.63;;;;;;;-141.97;100.00;47820.84;4975324;28;20485;-87
2022/11/29 06:19:55;;;;;;;82.07;31.63;;;;;;;-141.97;100.00;47818.94;4975353;28;20795;-87
2022/11/29 06:22:38;;;;;;;78.83;30.10;;;;;;;-141.97;100.00;47830.47;4973883;28;20423;-88
2022/11/29 06:25:25;;;;;;;82.93;32.13;;;;;;;-141.97;100.00;47818.94;4974667;28;20418;-87
2022/11/29 06:28:12;;;;;;;82.20;31.37;;;;;;;-141.97;100.00;47853.53;4974824;28;20427;-88
2022/11/29 06:31:25;;;;;;;84.90;33.47;;;;;;;-141.97;100.00;47749.72;4974693;28;20451;-89
2022/11/29 06:33:59;;;;;;;80.83;31.70;;;;;;;-141.97;100.00;47817.00;4916571;29;20469;-89
2022/11/29 06:36:33;;;;;;;86.57;33.80;;;;;;;-141.97;100.00;47838.16;4915781;29;20424;-87
2022/11/29 06:38:58;;;;;;;110.23;42.33;;;;;;;-141.97;100.00;47726.66;4916143;29;20921;-86
2022/11/29 06:41:24;;;;;;;101.37;40.57;;;;;;;-141.97;100.00;47738.19;4917840;29;20425;-87
2022/11/29 06:43:50;;;;;;;103.80;41.83;;;;;;;-141.97;100.00;47667.06;4889965;28;20694;-85
2022/11/29 06:46:41;;;;;;;96.63;38.27;;;;;;;-141.97;100.00;47807.41;4932676;29;20645;-86
2022/11/29 06:49:25;;;;;;;100.03;39.57;;;;;;;-141.97;100.00;47770.88;4915747;29;20322;-86
2022/11/29 06:52:12;;;;;;;85.53;33.43;;;;;;;-141.97;100.00;47795.88;4930150;29;20580;-86
2022/11/29 06:55:04;;;;;;;117.57;45.17;;;;;;;-141.97;100.00;47792.03;4930700;29;20448;-86
2022/11/29 06:57:35;;;;;;;91.93;36.07;;;;;;;-141.97;100.00;47818.94;4931690;29;20944;-85
2022/11/29 07:00:13;;;;;;;72.93;28.87;;;;;;;-141.97;100.00;47784.34;4931073;29;22802;-86
2022/11/29 07:03:11;;;;;;;61.07;24.67;;;;;;;-141.97;100.00;47793.94;4931493;29;20419;-87
2022/11/29 07:05:38;;;;;;;66.90;27.10;;;;;;;-141.97;100.00;47863.13;4915597;29;20433;-85
2022/11/29 07:08:09;;;;;;;77.83;30.57;;;;;;;-141.97;100.00;47822.78;4975286;28;20509;-87
2022/11/29 07:10:37;;;;;;;112.43;45.13;;;;;;;-141.97;100.00;47799.72;4977561;28;20513;-86
2022/11/29 07:13:03;;;;;;;102.83;37.17;;;;;;;-141.97;100.00;47770.88;4977095;28;20477;-86
2022/11/29 07:15:29;;;;;;;82.63;30.77;;;;;;;-141.97;100.00;47784.34;4997451;28;20466;-82
2022/11/29 07:18:20;;;;;;;90.23;34.23;;;;;;;-141.97;100.00;47818.94;4995259;28;20414;-86
2022/11/29 07:21:26;;;;;;;82.23;33.80;;;;;;;-141.97;100.00;47790.09;4980348;28;20187;-86
2022/11/29 07:24:08;;;;;;;52.50;22.57;;;;;;;-141.97;100.00;47803.56;4977348;28;20426;-87
2022/11/29 07:26:44;;;;;;;52.30;23.10;;;;;;;-141.97;100.00;47782.41;4994934;28;20425;-87
2022/11/29 07:29:28;;;;;;;52.13;20.57;;;;;;;-141.97;100.00;47847.75;4977046;28;20421;-87
2022/11/29 07:32:00;;;;;;;45.20;19.27;;;;;;;-141.97;100.00;47776.63;4977378;28;20792;-87
2022/11/29 07:34:48;;;;;;;43.70;20.23;;;;;;;-141.97;100.00;47761.25;4978906;28;20447;-87
2022/11/29 07:37:19;;;;;;;310.00;125.13;;;;;;;-141.97;100.00;47788.19;4994398;28;20561;-87
2022/11/29 07:40:06;;;;;;;236.60;101.63;;;;;;;-141.97;100.00;47826.63;4994030;28;20433;-88
2022/11/29 07:42:38;;;;;;;133.30;53.07;;;;;;;-141.97;100.00;47832.38;4957382;28;20947;-89
2022/11/29 07:45:06;;;;;;;108.17;43.13;;;;;;;-141.97;100.00;47801.63;4948510;28;20463;-87
2022/11/29 07:47:31;;;;;;;64.50;27.00;;;;;;;-141.97;100.00;47792.03;4959092;28;20424;-88
2022/11/29 07:49:57;;;;;;;65.13;29.60;;;;;;;-141.97;100.00;47853.53;4967978;28;20456;-86
2022/11/29 07:52:22;;;;;;;64.20;28.03;;;;;;;-141.97;100.00;47828.53;4997370;28;20211;-85
2022/11/29 07:54:47;;;;;;;66.13;32.37;;;;;;;-141.97;100.00;47761.25;4981953;28;20179;-85
2022/11/29 07:57:13;;;;;;;81.47;41.10;;;;;;;-141.97;100.00;47755.50;5018021;28;20186;-91
2022/11/29 07:59:38;;;;;;;78.80;37.63;;;;;;;-141.97;100.00;47888.13;4984413;28;20528;-88
2022/11/29 08:02:04;;;;;;;94.23;45.70;;;;;;;-141.97;100.00;47732.44;4976652;28;20186;-88
2022/11/29 08:04:32;;;;;;;75.90;39.10;;;;;;;-141.97;100.00;47907.34;4994373;28;20186;-87
2022/11/29 08:06:58;;;;;;;62.87;30.17;;;;;;;-141.97;100.00;47622.88;4997453;28;20264;-87
2022/11/29 08:09:24;;;;;;;46.57;23.53;;;;;;;-141.97;100.00;47715.13;4979812;28;20430;-88
2022/11/29 08:11:49;;;;;;;34.53;18.20;;;;;;;-141.97;100.00;47688.22;4977463;28;20430;-86
2022/11/29 08:14:14;;;;;;;31.43;13.87;;;;;;;-141.97;100.00;47742.03;4976834;28;20203;-85
2022/11/29 08:16:40;;;;;;;44.57;23.63;;;;;;;-141.97;100.00;47724.75;4994268;28;20219;-87
2022/11/29 08:19:05;;;;;;;75.17;38.07;;;;;;;-141.97;100.00;47836.22;4975046;28;20629;-88
2022/11/29 08:21:31;;;;;;;112.57;49.80;;;;;;;-141.97;100.00;47761.25;4990032;28;20183;-86
2022/11/29 08:23:56;;;;;;;133.93;60.67;;;;;;;-141.97;100.00;47738.19;4993646;28;20251;-86
2022/11/29 08:26:22;;;;;;;62.63;29.47;;;;;;;-141.97;100.00;47801.63;4978405;28;20176;-86
2022/11/29 08:28:55;;;;;;;67.13;31.50;;;;;;;-141.97;100.00;47753.56;4976523;28;20179;-88
2022/11/29 08:31:21;;;;;;;53.07;24.60;;;;;;;-141.97;100.00;47670.91;4976452;28;20186;-91
2022/11/29 08:33:46;;;;;;;66.70;29.53;;;;;;;-141.97;100.00;47876.59;4976800;28;20455;-89
2022/11/29 08:36:18;;;;;;;53.10;24.43;;;;;;;-141.97;100.00;47868.91;4994527;28;20247;-89
2022/11/29 08:38:44;;;;;;;136.53;48.03;;;;;;;-141.97;100.00;47695.91;4993795;28;20175;-88
2022/11/29 08:41:12;;;;;;;71.13;29.80;;;;;;;-141.97;100.00;47653.63;4998890;28;20422;-89
2022/11/29 08:43:37;;;;;;;118.67;44.13;;;;;;;-141.97;100.00;47874.69;4976127;28;20547;-88
2022/11/29 08:46:03;;;;;;;96.83;33.37;;;;;;;-141.97;100.00;47793.94;4967321;28;20457;-89
2022/11/29 08:48:28;;;;;;;136.07;42.60;;;;;;;-141.97;100.00;47799.72;4976581;28;20632;-89
2022/11/29 08:50:55;;;;;;;118.63;32.40;;;;;;;-141.97;100.00;47811.25;4992057;28;20206;-89
2022/11/29 08:56:04;;;;;;;67.80;27.27;;;;;;;-141.97;100.00;47803.56;4993750;28;20438;-88
2022/11/29 08:58:30;;;;;;;103.90;37.03;;;;;;;-141.97;100.00;47709.38;4993610;28;20490;-88
2022/11/29 09:00:56;;;;;;;66.37;31.43;;;;;;;-141.97;100.00;47807.41;4975631;28;20182;-89
2022/11/29 09:06:07;;;;;;;72.50;33.73;;;;;;;-141.97;100.00;47834.31;4974379;28;20162;-88
2022/11/29 09:08:33;;;;;;;47.67;23.27;;;;;;;-141.97;100.00;47861.22;4974018;28;20498;-88
2022/11/29 09:10:58;;;;;;;46.97;24.63;;;;;;;-141.97;98.64;47728.59;4959260;28;20523;-89
2022/11/29 09:13:26;;;;;;;35.03;17.17;;;;;;;-141.97;97.97;47853.53;4972950;28;20191;-89
2022/11/29 09:15:52;;;;;;;46.70;23.93;;;;;;;-141.97;97.47;47707.44;4972619;28;20649;-88
2022/11/29 09:18:17;;;;;;;37.93;18.63;;;;;;;-141.97;96.97;47849.69;4956150;28;20407;-88
2022/11/29 09:20:43;;;;;;;35.37;16.97;;;;;;;-141.97;96.62;47836.22;4976652;28;20180;-88
2022/11/29 09:23:10;;;;;;;33.27;15.87;;;;;;;-141.97;96.10;47653.63;4992801;28;20163;-88
2022/11/29 09:25:35;;;;;;;64.97;33.23;;;;;;;-141.97;97.10;47740.13;4975307;28;20418;-89
2022/11/29 09:28:02;;;;;;;87.27;41.20;;;;;;;-141.97;97.65;47795.88;4975410;28;20417;-89
2022/11/29 09:30:30;;;;;;;65.30;30.13;;;;;;;-141.97;97.47;47793.94;4993247;28;20612;-88
2022/11/29 09:33:01;;;;;;;45.87;21.90;;;;;;;-141.97;96.43;47815.09;4991986;28;20454;-89
2022/11/29 09:35:28;;;;;;;49.23;22.47;;;;;;;-141.97;96.19;47715.13;4975466;28;20411;-90
2022/11/29 09:37:54;;;;;;;46.50;23.00;;;;;;;-141.97;94.84;47891.97;4975216;28;20279;-90
2022/11/29 09:40:31;;;;;;;95.37;43.43;;;;;;;-141.97;94.03;47692.06;4992788;28;20182;-89
2022/11/29 09:43:25;;;;;;;71.27;34.33;;;;;;;-141.97;93.48;47807.41;4995981;28;20160;-88
2022/11/29 09:46:00;;;;;;;46.60;23.03;;;;;;;-141.97;92.04;47915.03;4989804;28;20300;-88
2022/11/29 09:48:37;;;;;;;49.00;24.80;;;;;;;-141.97;91.83;47761.25;4975511;28;20217;-89
2022/11/29 09:51:34;;;;;;;28.27;14.50;;;;;;;-141.97;90.68;47786.25;4973515;28;20195;-90
2022/11/29 09:54:13;;;;;;;36.23;17.53;;;;;;;-141.97;89.96;47842.00;4860527;29;20257;-87
2022/11/29 09:56:50;;;;;;;59.53;26.10;;;;;;;-141.97;89.06;47770.88;4874917;29;20183;-87
2022/11/29 09:59:22;;;;;;;38.57;17.90;;;;;;;-141.97;89.75;47738.19;4861224;29;20194;-87
2022/11/29 10:02:02;;;;;;;29.03;13.47;;;;;;;-141.97;91.77;47851.59;4871311;29;20182;-87
2022/11/29 10:04:36;;;;;;;49.77;20.83;;;;;;;-141.97;93.14;47688.22;4894737;29;20199;-85
2022/11/29 10:07:16;;;;;;;50.47;23.33;;;;;;;-141.97;93.98;47907.34;4895153;29;20185;-87
2022/11/29 10:09:53;;;;;;;31.73;15.80;;;;;;;-141.97;92.72;47801.63;4896108;29;20993;-87
2022/11/29 10:12:45;;;;;;;27.10;13.80;;;;;;;-141.97;91.40;47822.78;4881334;29;20205;-87
2022/11/29 10:15:21;;;;;;;46.37;21.80;;;;;;;-141.97;90.99;47792.03;4896308;29;20186;-88
2022/11/29 10:18:09;;;;;;;27.53;13.10;;;;;;;-141.97;90.53;47786.25;4878700;29;20202;-87
2022/11/29 10:20:38;;;;;;;30.80;14.23;;;;;;;-141.97;91.15;47799.72;4878286;29;20269;-88
2022/11/29 10:23:30;;;;;;;24.77;11.70;;;;;;;-141.97;91.66;47797.78;4894328;29;20282;-88
2022/11/29 10:25:57;;;;;;;24.87;12.87;;;;;;;-141.97;91.87;47918.88;4894316;29;20231;-88
2022/11/29 10:28:32;;;;;;;26.57;14.40;;;;;;;-141.97;91.80;47792.03;4893972;29;20453;-88
2022/11/29 10:31:13;;;;;;;29.50;14.97;;;;;;;-141.97;91.98;47732.44;4928440;28;20270;-88
2022/11/29 10:33:40;;;;;;;28.27;14.53;;;;;;;-141.97;91.19;47768.94;4992937;28;20207;-89
2022/11/29 10:36:33;;;;;;;32.03;16.07;;;;;;;-141.97;90.43;47868.91;4995488;28;20188;-87
2022/11/29 10:39:03;;;;;;;28.03;14.97;;;;;;;-141.97;90.20;47745.88;4932025;29;20193;-88
2022/11/29 10:41:28;;;;;;;28.63;14.50;;;;;;;-141.97;90.75;47870.81;4916489;29;20357;-88
2022/11/29 10:43:57;;;;;;;22.60;10.60;;;;;;;-141.97;90.48;47684.38;4920053;29;20324;-88
2022/11/29 10:46:40;;;;;;;22.63;11.20;;;;;;;-141.97;90.34;47876.59;4922608;29;20251;-89
2022/11/29 10:49:14;;;;;;;22.77;12.50;;;;;;;-141.97;90.06;47730.50;4935644;29;20256;-86
2022/11/29 10:51:39;;;;;;;24.73;14.00;;;;;;;-141.97;91.82;47730.50;4920659;29;20232;-87
2022/11/29 10:54:14;;;;;;;43.30;20.90;;;;;;;-141.97;94.20;47736.28;4935475;29;20729;-87
2022/11/29 10:56:41;;;;;;;73.20;30.00;;;;;;;-141.97;95.35;47763.19;4921549;29;20781;-86
2022/11/29 10:59:19;;;;;;;85.67;38.23;;;;;;;-141.97;95.56;47838.16;4921634;29;20174;-88
2022/11/29 11:01:45;;;;;;;34.90;16.27;;;;;;;-141.97;93.86;47818.94;4919148;29;20185;-87
2022/11/29 11:04:20;;;;;;;31.07;18.57;;;;;;;-141.97;93.46;47834.31;4919031;29;20212;-87
2022/11/29 11:06:51;;;;;;;29.93;16.83;;;;;;;-141.97;94.89;47795.88;4919598;29;20668;-88
2022/11/29 11:09:34;;;;;;;27.63;16.10;;;;;;;-141.97;93.93;47757.41;4919305;29;20240;-88
2022/11/29 11:12:03;;;;;;;27.90;14.47;;;;;;;-141.97;93.95;47684.38;4920861;29;20200;-88
2022/11/29 11:14:38;;;;;;;19.73;10.90;;;;;;;-141.97;93.97;47870.81;4940497;29;20181;-88
2022/11/29 11:17:28;;;;;;;34.80;21.07;;;;;;;-141.97;94.43;47780.47;4973259;28;20669;-86
2022/11/29 11:19:59;;;;;;;24.73;14.10;;;;;;;-141.97;92.64;47826.63;4977494;28;20247;-88
2022/11/29 11:22:27;;;;;;;58.13;33.53;;;;;;;-141.97;92.99;47803.56;4973468;28;20180;-88
2022/11/29 11:24:59;;;;;;;30.37;15.63;;;;;;;-141.97;93.36;47792.03;4975152;28;20177;-88
2022/11/29 11:27:33;;;;;;;31.77;17.37;;;;;;;-141.97;93.58;47740.13;4974537;28;20252;-88
2022/11/29 11:29:59;;;;;;;33.27;16.17;;;;;;;-141.97;93.14;47778.56;4989728;28;20647;-88
2022/11/29 11:32:25;;;;;;;39.30;18.37;;;;;;;-141.97;92.19;47699.75;4972968;28;20294;-89
2022/11/29 11:34:57;;;;;;;58.83;28.97;;;;;;;-141.97;92.33;47757.41;4990716;28;20616;-91
2022/11/29 11:37:32;;;;;;;66.93;30.27;;;;;;;-141.97;93.22;47903.50;4974161;28;20202;-89
2022/11/29 11:40:16;;;;;;;49.57;23.37;;;;;;;-141.97;93.09;47834.31;4974229;28;20262;-88